ENGM/OSL METAR and TAF weather

Enter ICAO airport designator
Station Type Date Time Source
ENGM METAR 2021/06/24 06:20 UTC NOAA

ENGM 240620Z 17007KT 9999 SCT010 BKN013 14/11 Q1018 BECMG SCT012 BKN015


Station Type Date Time Source
ENGM Decoded METAR 2021/06/24 06:20 UTC NOAA

Oslo / Gardermoen, Norway (ENGM) 60-12N 011-05E 204M
Jun 24, 2021 - 02:20 AM EDT / 2021.06.24 0620 UTC
Wind: from the S (170 degrees) at 8 MPH (7 KT):0
Visibility: greater than 7 mile(s):0
Sky conditions: mostly cloudy
Temperature: 57 F (14 C)
Dew Point: 51 F (11 C)
Relative Humidity: 82%
Pressure (altimeter): 30.06 in. Hg (1018 hPa)
ob: ENGM 240620Z 17007KT 9999 SCT010 BKN013 14/11 Q1018 BECMG SCT012 BKN015
cycle: 6

Station Type Date Time Source
ENGM TAF 2021/06/24 06:58 UTC NOAA

TAF ENGM 240500Z 2406/2506 18008KT 9999 BKN008
BECMG 2406/2408 SCT020 PROB30 2502/2506 BKN005

Example: see airport list